Time;durP1;ratioP1;P1;durP2;ratioP2;P2;SDS_P1;SDS_P2;PMS_P1;PMS_P2;Temp;Humidity;BMP_temperature;BMP_pressure;BME280_temperature;BME280_humidity;BME280_pressure;Samples;Min_cycle;Max_cycle;Signal;HPM_P1;HPM_P2
2023/04/02 00:00:08;;;;;;;8.07;4.90;;;;;;;0.62;100.00;101516.09;10339707;28;20522;-69
2023/04/02 00:05:15;;;;;;;8.88;4.50;;;;;;;0.56;100.00;101517.06;10339986;28;20203;-68
2023/04/02 00:10:30;;;;;;;7.05;4.30;;;;;;;0.54;100.00;101535.28;10338505;28;20055;-68
2023/04/02 00:15:27;;;;;;;5.97;4.20;;;;;;;0.51;100.00;101535.78;10347977;27;20071;-69
2023/04/02 00:20:25;;;;;;;6.20;4.00;;;;;;;0.47;100.00;101541.84;10347465;28;20067;-68
2023/04/02 00:25:25;;;;;;;8.43;4.43;;;;;;;0.52;100.00;101548.16;10349916;28;20076;-68
2023/04/02 00:30:22;;;;;;;6.60;4.00;;;;;;;0.52;100.00;101558.13;10333120;28;20113;-75
2023/04/02 00:35:26;;;;;;;6.30;4.38;;;;;;;0.46;100.00;101559.84;10335719;28;20123;-75
2023/04/02 00:40:28;;;;;;;6.15;4.10;;;;;;;0.38;100.00;101563.69;10349011;28;20059;-75
2023/04/02 00:45:35;;;;;;;5.97;3.80;;;;;;;0.40;100.00;101571.53;10331658;28;20044;-75
2023/04/02 00:50:38;;;;;;;4.35;3.72;;;;;;;0.36;100.00;101581.09;10339496;28;20044;-75
2023/04/02 00:55:39;;;;;;;;;;;;;;;0.34;100.00;101585.88;10340050;28;20044;-75
2023/04/02 01:00:36;;;;;;;5.50;3.88;;;;;;;0.39;100.00;101602.16;10334298;28;19920;-75
2023/04/02 01:05:35;;;;;;;4.97;3.70;;;;;;;0.32;100.00;101602.25;10349955;27;20538;-75
2023/04/02 01:10:41;;;;;;;5.03;3.92;;;;;;;0.41;100.00;101616.22;10339565;28;20069;-75
2023/04/02 01:15:52;;;;;;;7.72;3.80;;;;;;;0.35;100.00;101627.91;10352010;28;20063;-74
2023/04/02 01:21:12;;;;;;;9.00;3.90;;;;;;;0.39;100.00;101634.44;10349307;28;20496;-75
2023/04/02 01:26:25;;;;;;;6.50;3.70;;;;;;;0.40;100.00;101636.09;10333104;28;20071;-75
2023/04/02 01:31:22;;;;;;;6.32;3.83;;;;;;;0.47;100.00;101646.78;10348880;28;20558;-75
2023/04/02 01:36:42;;;;;;;4.90;3.50;;;;;;;0.39;100.00;101647.91;10332736;28;20094;-75
2023/04/02 01:41:47;;;;;;;6.05;3.75;;;;;;;0.57;100.00;101652.44;10329676;28;20093;-75
2023/04/02 01:46:48;;;;;;;8.15;4.05;;;;;;;0.52;100.00;101665.75;10352836;28;20052;-75
2023/04/02 01:51:51;;;;;;;6.00;3.90;;;;;;;0.57;100.00;101672.06;10337165;28;20037;-75
2023/04/02 01:56:50;;;;;;;9.40;4.20;;;;;;;0.47;100.00;101679.88;10333073;28;20144;-75
2023/04/02 02:02:20;;;;;;;9.05;4.07;;;;;;;0.48;100.00;101686.91;10346347;28;20050;-75
2023/04/02 02:07:19;;;;;;;7.45;3.72;;;;;;;0.38;100.00;101697.38;10329924;28;20079;-75
2023/04/02 02:12:16;;;;;;;10.20;3.85;;;;;;;0.42;100.00;101709.34;10341705;28;20032;-74
2023/04/02 02:17:16;;;;;;;6.20;3.80;;;;;;;0.36;100.00;101718.31;10344949;28;20071;-75
2023/04/02 02:22:26;;;;;;;7.38;3.80;;;;;;;0.32;100.00;101722.50;10323303;28;20033;-75
2023/04/02 02:27:22;;;;;;;8.85;3.70;;;;;;;0.32;100.00;101719.78;10341935;28;20042;-75
2023/04/02 02:32:22;;;;;;;9.18;3.83;;;;;;;0.27;100.00;101727.72;10330639;28;20040;-75
2023/04/02 02:37:25;;;;;;;10.13;3.78;;;;;;;0.24;100.00;101741.63;10327028;28;20037;-75
2023/04/02 02:42:32;;;;;;;6.53;3.35;;;;;;;0.22;100.00;101746.41;10351598;28;20123;-75
2023/04/02 02:47:34;;;;;;;10.23;3.78;;;;;;;0.11;100.00;101756.03;10338954;28;20067;-75
2023/04/02 02:52:34;;;;;;;7.13;3.58;;;;;;;0.10;100.00;101765.97;10343880;28;20446;-75
2023/04/02 02:57:39;;;;;;;4.55;3.25;;;;;;;0.07;100.00;101771.81;10334148;28;20103;-75
2023/04/02 03:02:38;;;;;;;4.65;3.28;;;;;;;0.06;100.00;101786.28;10328668;28;20067;-75
2023/04/02 03:07:36;;;;;;;6.45;3.50;;;;;;;0.02;100.00;101785.06;10340347;27;20923;-75
2023/04/02 03:12:38;;;;;;;5.88;3.42;;;;;;;-0.14;100.00;101801.75;10328242;28;20040;-75
2023/04/02 03:18:02;;;;;;;5.38;3.40;;;;;;;-0.07;100.00;101807.91;10333739;28;20667;-75
2023/04/02 03:23:16;;;;;;;5.32;3.33;;;;;;;-0.11;100.00;101817.47;10333631;28;20519;-75
2023/04/02 03:28:21;;;;;;;7.47;3.50;;;;;;;-0.12;100.00;101826.56;10333294;28;20113;-75
2023/04/02 03:33:23;;;;;;;9.60;4.68;;;;;;;-0.15;100.00;101838.56;10349059;28;20043;-75
2023/04/02 03:38:39;;;;;;;8.65;3.75;;;;;;;-0.12;100.00;101845.38;10331674;28;20105;-74
2023/04/02 03:43:41;;;;;;;4.05;3.40;;;;;;;-0.09;100.00;101847.66;10338126;28;20406;-75
2023/04/02 03:48:43;;;;;;;9.52;4.45;;;;;;;0.01;100.00;101864.09;10333202;27;21001;-75
2023/04/02 03:53:42;;;;;;;7.88;3.50;;;;;;;-0.06;100.00;101869.53;10338337;28;20048;-75
2023/04/02 03:58:51;;;;;;;9.30;3.92;;;;;;;-0.11;100.00;101869.38;10326237;28;20057;-75
2023/04/02 04:03:51;;;;;;;6.65;3.70;;;;;;;-0.18;100.00;101881.22;10340256;28;20127;-75
2023/04/02 04:08:53;;;;;;;5.07;3.30;;;;;;;-0.13;100.00;101892.13;10337387;28;20040;-75
2023/04/02 04:13:59;;;;;;;9.45;3.78;;;;;;;-0.19;100.00;101906.44;10325870;28;20399;-75
2023/04/02 04:19:09;;;;;;;6.75;3.88;;;;;;;-0.14;100.00;101914.66;10328942;28;20124;-75
2023/04/02 04:24:23;;;;;;;5.38;3.50;;;;;;;-0.23;100.00;101920.31;10344433;28;20414;-75
2023/04/02 04:29:44;;;;;;;6.35;3.50;;;;;;;-0.24;100.00;101924.03;10342789;28;20132;-75
2023/04/02 04:34:52;;;;;;;5.15;3.78;;;;;;;-0.20;100.00;101937.06;10330229;28;20781;-75
2023/04/02 04:40:03;;;;;;;7.13;3.78;;;;;;;-0.23;100.00;101944.50;10325282;28;20100;-75
2023/04/02 04:45:09;;;;;;;4.93;3.10;;;;;;;-0.20;100.00;101954.00;10338369;28;20037;-75
2023/04/02 04:50:29;;;;;;;5.35;3.30;;;;;;;-0.03;100.00;101960.50;10327291;28;20050;-74
2023/04/02 04:55:36;;;;;;;7.78;3.53;;;;;;;0.05;100.00;101967.50;10341181;28;20048;-74
2023/04/02 05:00:54;;;;;;;4.55;3.80;;;;;;;0.28;100.00;101971.47;10344310;28;20093;-75
2023/04/02 05:05:51;;;;;;;11.40;3.50;;;;;;;0.40;100.00;101985.88;10334911;28;20505;-75
2023/04/02 05:11:19;;;;;;;5.85;3.30;;;;;;;0.56;100.00;101993.41;10347991;28;20044;-75
2023/04/02 05:16:25;;;;;;;4.85;3.70;;;;;;;0.67;100.00;102009.88;10327780;28;20396;-75
2023/04/02 05:21:34;;;;;;;8.57;3.70;;;;;;;0.87;100.00;102007.84;10341280;28;20073;-75
2023/04/02 05:26:38;;;;;;;4.82;3.33;;;;;;;0.99;100.00;102016.03;10340685;28;20044;-75
2023/04/02 05:31:45;;;;;;;5.50;3.55;;;;;;;1.01;100.00;102033.59;10335076;28;20046;-75
2023/04/02 05:36:45;;;;;;;7.28;4.13;;;;;;;1.11;100.00;102037.66;10349547;28;20064;-75
2023/04/02 05:41:44;;;;;;;8.95;4.22;;;;;;;1.11;100.00;102043.03;10337298;28;20123;-75
2023/04/02 05:47:11;;;;;;;6.75;3.60;;;;;;;1.33;100.00;102046.97;10352074;28;20040;-75
2023/04/02 05:52:14;;;;;;;5.15;3.80;;;;;;;1.44;100.00;102050.81;10347902;28;20444;-75
2023/04/02 05:57:16;;;;;;;5.32;3.70;;;;;;;1.41;100.00;102052.06;10342498;28;20051;-75
2023/04/02 06:02:31;;;;;;;6.67;3.70;;;;;;;1.55;100.00;102068.09;10329835;28;20049;-75
2023/04/02 06:07:35;;;;;;;6.45;3.25;;;;;;;1.59;100.00;102078.19;10329610;28;20076;-75
2023/04/02 06:12:50;;;;;;;7.50;3.58;;;;;;;1.74;100.00;102075.16;10335029;28;20074;-75
2023/04/02 06:17:51;;;;;;;5.90;4.05;;;;;;;1.93;100.00;102096.69;10330169;28;20047;-75
2023/04/02 06:22:54;;;;;;;4.70;3.70;;;;;;;1.99;100.00;102106.59;10330628;28;20047;-75
2023/04/02 06:27:54;;;;;;;6.47;4.00;;;;;;;2.01;100.00;102104.47;10335641;28;20143;-75
2023/04/02 06:32:50;;;;;;;4.85;4.18;;;;;;;2.02;100.00;102116.91;10340903;28;20043;-75
2023/04/02 06:37:50;;;;;;;3.80;3.40;;;;;;;1.98;100.00;102121.13;10329751;28;20105;-75
2023/04/02 06:42:51;;;;;;;8.48;4.18;;;;;;;2.00;100.00;102140.63;10338365;28;20043;-75
2023/04/02 06:47:50;;;;;;;6.82;4.15;;;;;;;2.01;100.00;102142.25;10318312;28;20521;-75
2023/04/02 06:52:50;;;;;;;4.70;3.42;;;;;;;2.04;100.00;102156.13;10340823;28;20044;-75
2023/04/02 06:57:47;;;;;;;8.55;4.00;;;;;;;2.07;100.00;102162.94;10349139;28;20072;-75
2023/04/02 07:02:44;;;;;;;4.65;3.80;;;;;;;2.26;100.00;102161.06;10322920;28;20048;-75
2023/04/02 07:07:40;;;;;;;4.85;3.50;;;;;;;2.38;100.00;102164.63;10336321;28;20044;-75
2023/04/02 07:12:37;;;;;;;5.93;4.15;;;;;;;2.42;100.00;102170.41;10343372;28;20234;-77
2023/04/02 07:17:33;;;;;;;4.30;3.70;;;;;;;2.47;100.00;102173.25;10320090;28;20120;-75
2023/04/02 07:22:30;;;;;;;6.38;3.95;;;;;;;2.60;100.00;102181.19;10351283;28;20388;-75
2023/04/02 07:27:26;;;;;;;4.38;3.65;;;;;;;2.68;100.00;102186.25;10334599;28;20036;-75
2023/04/02 07:32:23;;;;;;;7.78;3.63;;;;;;;2.71;100.00;102198.47;10337968;28;20040;-75
2023/04/02 07:37:19;;;;;;;4.97;3.60;;;;;;;2.76;100.00;102209.41;10355575;27;20093;-75
2023/04/02 07:42:16;;;;;;;6.22;4.03;;;;;;;2.86;100.00;102219.69;10337244;28;20055;-75
2023/04/02 07:47:13;;;;;;;8.02;4.68;;;;;;;2.99;100.00;102224.88;10332860;28;20108;-75
2023/04/02 07:52:10;;;;;;;4.00;3.65;;;;;;;3.09;100.00;102225.16;10345450;28;20127;-75
2023/04/02 07:57:07;;;;;;;7.75;4.53;;;;;;;3.21;100.00;102238.69;10331690;28;20051;-75
2023/04/02 08:02:04;;;;;;;8.00;4.35;;;;;;;3.43;100.00;102236.25;10334820;28;20055;-75
2023/04/02 08:07:01;;;;;;;6.80;4.38;;;;;;;3.57;100.00;102251.25;10340462;28;20384;-75
2023/04/02 08:11:58;;;;;;;5.90;4.25;;;;;;;3.81;100.00;102259.38;10322148;28;20051;-75
2023/04/02 08:16:54;;;;;;;8.18;5.28;;;;;;;3.94;100.00;102259.13;10337157;28;20495;-75
2023/04/02 08:21:53;;;;;;;6.88;4.32;;;;;;;4.19;100.00;102261.59;10349775;28;20044;-75
2023/04/02 08:26:52;;;;;;;5.72;4.75;;;;;;;4.41;100.00;102264.50;10330716;28;20048;-75
2023/04/02 08:31:48;;;;;;;5.22;4.65;;;;;;;4.81;100.00;102274.53;10356342;28;20060;-75
2023/04/02 08:36:45;;;;;;;5.28;4.53;;;;;;;5.19;100.00;102275.78;10330973;28;20124;-75
2023/04/02 08:42:18;;;;;;;4.47;4.05;;;;;;;5.02;100.00;102283.88;10335767;28;20040;-75
2023/04/02 08:47:19;;;;;;;7.20;4.95;;;;;;;4.81;100.00;102289.97;10345941;28;20072;-75
2023/04/02 08:52:23;;;;;;;4.82;4.38;;;;;;;4.93;100.00;102298.06;10346496;28;20511;-75
2023/04/02 08:57:38;;;;;;;8.55;5.30;;;;;;;5.01;100.00;102303.94;10348796;28;20035;-75
2023/04/02 09:02:42;;;;;;;4.97;4.40;;;;;;;5.18;100.00;102314.81;10352484;28;20120;-75
2023/04/02 09:07:39;;;;;;;4.70;4.28;;;;;;;5.20;100.00;102326.25;10345791;28;20097;-75
2023/04/02 09:12:35;;;;;;;5.88;3.70;;;;;;;5.47;100.00;102331.06;10356268;28;20506;-75
2023/04/02 09:17:31;;;;;;;4.70;4.20;;;;;;;5.63;100.00;102335.69;10335469;28;20524;-75
2023/04/02 09:22:47;;;;;;;13.15;5.88;;;;;;;5.90;100.00;102329.66;10336829;28;20067;-75
2023/04/02 09:27:48;;;;;;;4.63;3.80;;;;;;;6.02;100.00;102341.25;10352709;28;20044;-75
2023/04/02 09:32:52;;;;;;;4.35;3.70;;;;;;;6.03;100.00;102340.19;10339508;28;20470;-75
2023/04/02 09:38:09;;;;;;;6.65;4.30;;;;;;;6.23;100.00;102353.28;10349533;28;20055;-75
2023/04/02 09:43:15;;;;;;;7.38;4.00;;;;;;;6.42;100.00;102358.44;10340560;28;20127;-75
2023/04/02 09:48:29;;;;;;;6.60;4.07;;;;;;;6.50;100.00;102356.13;10335031;28;20048;-75
2023/04/02 09:53:33;;;;;;;5.57;3.95;;;;;;;6.90;100.00;102370.50;10348476;27;20642;-75
2023/04/02 09:58:30;;;;;;;5.80;3.78;;;;;;;7.00;100.00;102376.06;10334328;28;20045;-75
2023/04/02 10:03:28;;;;;;;6.45;4.07;;;;;;;7.33;100.00;102375.09;10350926;28;20105;-75
2023/04/02 10:08:27;;;;;;;4.85;3.60;;;;;;;8.05;100.00;102378.50;10345858;28;20059;-76
2023/04/02 10:13:28;;;;;;;5.35;4.10;;;;;;;8.11;100.00;102391.09;10336766;28;20040;-75
2023/04/02 10:18:43;;;;;;;4.20;3.90;;;;;;;8.81;100.00;102382.84;10329845;28;20048;-76
2023/04/02 10:23:39;;;;;;;5.55;4.47;;;;;;;9.16;100.00;102395.81;10347452;28;20527;-76
2023/04/02 10:29:02;;;;;;;7.57;4.60;;;;;;;9.10;100.00;102406.97;10330114;28;20047;-76
2023/04/02 10:34:11;;;;;;;4.30;3.90;;;;;;;10.03;100.00;102414.31;10345670;28;20131;-76
2023/04/02 10:39:45;;;;;;;5.28;3.97;;;;;;;11.83;100.00;102423.59;10348131;28;20078;-76
2023/04/02 10:44:59;;;;;;;4.97;4.10;;;;;;;11.41;100.00;102430.44;10332021;28;20043;-76
2023/04/02 10:50:11;;;;;;;5.05;4.25;;;;;;;11.74;100.00;102452.72;10348723;28;20044;-77
2023/04/02 10:55:27;;;;;;;5.50;4.60;;;;;;;12.02;100.00;102461.34;10329269;28;20131;-75
2023/04/02 11:00:27;;;;;;;6.85;4.50;;;;;;;11.94;89.63;102457.28;10338797;28;20108;-76
2023/04/02 11:05:42;;;;;;;5.10;4.47;;;;;;;12.60;88.65;102466.88;10350548;27;20044;-76
2023/04/02 11:10:45;;;;;;;5.03;4.50;;;;;;;12.83;86.11;102468.88;10345043;28;20051;-76
2023/04/02 11:15:41;;;;;;;4.70;4.30;;;;;;;11.95;91.77;102476.19;10343733;27;20070;-76
2023/04/02 11:20:48;;;;;;;6.30;4.72;;;;;;;12.28;90.23;102479.25;10348262;28;20309;-76
2023/04/02 11:25:46;;;;;;;6.63;4.80;;;;;;;11.84;93.75;102480.06;10334947;28;20052;-76
2023/04/02 11:30:47;;;;;;;5.22;4.72;;;;;;;11.96;86.42;102488.78;10334912;28;20139;-77
2023/04/02 11:35:44;;;;;;;7.07;4.97;;;;;;;12.87;83.46;102484.75;10343873;28;20051;-76
2023/04/02 11:40:49;;;;;;;5.57;5.07;;;;;;;14.06;73.77;102494.84;10341366;28;20040;-77
2023/04/02 11:45:53;;;;;;;5.70;5.05;;;;;;;14.17;67.07;102505.66;10355247;28;20044;-76
2023/04/02 11:50:50;;;;;;;5.25;4.75;;;;;;;14.86;67.86;102509.50;10347409;28;20079;-76
2023/04/02 11:56:15;;;;;;;5.63;5.13;;;;;;;14.96;67.97;102515.94;10331205;28;20055;-76
2023/04/02 12:01:37;;;;;;;5.47;4.88;;;;;;;15.00;66.18;102519.72;10345470;28;20040;-76
2023/04/02 12:06:33;;;;;;;5.30;4.80;;;;;;;14.84;64.96;102525.50;10333810;28;20047;-76
2023/04/02 12:11:32;;;;;;;6.72;5.18;;;;;;;14.24;68.59;102533.63;10336114;28;20063;-76
2023/04/02 12:16:33;;;;;;;5.38;4.88;;;;;;;15.27;63.35;102550.06;10333882;28;20075;-77
2023/04/02 12:21:31;;;;;;;5.32;4.93;;;;;;;15.74;57.34;102559.03;10318510;28;20044;-76
2023/04/02 12:26:31;;;;;;;5.97;5.45;;;;;;;15.40;54.69;103039.06;10337074;28;20068;-76
2023/04/02 12:31:28;;;;;;;5.40;5.00;;;;;;;15.93;55.71;102550.63;10336854;28;20052;-76
2023/04/02 12:36:25;;;;;;;6.60;5.68;;;;;;;15.39;59.15;102551.47;10325598;28;20052;-77
2023/04/02 12:41:26;;;;;;;6.25;5.25;;;;;;;18.39;57.43;102548.72;10338554;28;20040;-77
2023/04/02 12:46:24;;;;;;;6.00;5.18;;;;;;;16.38;56.33;102538.84;10335969;28;20043;-76
2023/04/02 12:51:21;;;;;;;5.80;5.30;;;;;;;16.04;61.97;102545.72;10347139;27;20044;-76
2023/04/02 12:56:20;;;;;;;6.30;5.70;;;;;;;17.61;58.80;102552.19;10331609;28;20068;-76
2023/04/02 13:01:20;;;;;;;8.48;5.57;;;;;;;17.79;51.34;102562.16;10321831;28;20075;-77
2023/04/02 13:06:21;;;;;;;5.95;5.40;;;;;;;18.40;48.20;102564.19;10339288;28;20071;-76
2023/04/02 13:11:21;;;;;;;6.68;5.38;;;;;;;18.58;51.08;102568.56;10349915;28;20698;-76
2023/04/02 13:16:17;;;;;;;7.35;5.90;;;;;;;18.69;48.88;102572.63;10339851;28;20130;-76
2023/04/02 13:21:20;;;;;;;6.35;4.97;;;;;;;17.58;52.14;102586.03;10349988;28;20042;-76
2023/04/02 13:26:20;;;;;;;6.47;4.78;;;;;;;16.80;53.51;102591.97;10338636;28;20044;-76
2023/04/02 13:31:17;;;;;;;6.63;5.95;;;;;;;18.37;49.56;102589.78;10341461;28;20533;-76
2023/04/02 13:36:14;;;;;;;6.05;5.47;;;;;;;18.06;47.22;102586.00;10353043;27;20052;-76
2023/04/02 13:41:20;;;;;;;5.93;5.43;;;;;;;19.43;41.65;102584.53;10342298;28;20054;-76
2023/04/02 13:46:21;;;;;;;6.10;5.35;;;;;;;18.36;40.73;102577.06;10353127;27;20067;-76
2023/04/02 13:51:21;;;;;;;6.30;5.70;;;;;;;17.54;52.22;102585.03;10346533;27;20048;-76
2023/04/02 13:56:18;;;;;;;6.20;5.22;;;;;;;18.62;41.88;102585.38;10330110;28;20050;-76
2023/04/02 14:01:14;;;;;;;5.70;5.20;;;;;;;17.67;51.86;102595.16;10352322;27;20048;-76
2023/04/02 14:06:41;;;;;;;5.70;5.05;;;;;;;17.65;54.67;102602.97;10339890;28;20048;-76
2023/04/02 14:11:58;;;;;;;6.68;5.25;;;;;;;18.98;48.26;102607.16;10330582;28;20139;-76
2023/04/02 14:17:00;;;;;;;6.78;5.13;;;;;;;19.20;48.04;102610.88;10344458;28;20044;-76
2023/04/02 14:22:07;;;;;;;;;;;;;;;15.82;53.97;102611.84;10345975;28;20044;-76
2023/04/02 14:27:23;;;;;;;6.72;5.97;;;;;;;16.31;60.09;102624.84;10344448;28;19924;-76
2023/04/02 14:32:22;;;;;;;5.78;4.95;;;;;;;15.43;65.42;102635.19;10344521;28;20442;-76
2023/04/02 14:37:25;;;;;;;6.95;5.30;;;;;;;14.08;65.77;102635.59;10331766;28;20044;-76
2023/04/02 14:42:28;;;;;;;6.80;4.97;;;;;;;12.63;82.52;102650.19;10346013;28;20044;-76
2023/04/02 14:47:41;;;;;;;8.38;5.10;;;;;;;13.56;75.12;102651.06;10332613;28;20050;-77
2023/04/02 14:52:42;;;;;;;5.60;4.70;;;;;;;11.91;80.87;102667.00;10345140;28;20055;-75
2023/04/02 14:57:50;;;;;;;7.60;4.82;;;;;;;13.99;83.09;102664.88;10334080;28;20044;-76
2023/04/02 15:02:54;;;;;;;8.30;5.82;;;;;;;12.63;84.73;102672.97;10334827;28;20390;-76
2023/04/02 15:07:56;;;;;;;6.22;4.75;;;;;;;11.72;87.90;102680.47;10347540;28;20048;-75
2023/04/02 15:12:54;;;;;;;5.00;4.38;;;;;;;11.65;90.44;102674.44;10341278;28;20040;-75
2023/04/02 15:17:51;;;;;;;6.45;5.10;;;;;;;11.22;85.67;102673.13;10330090;28;20086;-75
2023/04/02 15:23:12;;;;;;;5.80;4.82;;;;;;;13.79;78.94;102676.13;10340271;28;20518;-75
2023/04/02 15:28:15;;;;;;;5.95;4.80;;;;;;;14.47;71.50;102681.31;10335395;28;20043;-75
2023/04/02 15:33:23;;;;;;;8.25;5.38;;;;;;;11.82;80.52;102696.06;10344652;28;20594;-75
2023/04/02 15:38:25;;;;;;;5.85;4.88;;;;;;;13.16;81.45;102697.03;10347881;28;20131;-75
2023/04/02 15:43:30;;;;;;;5.45;4.63;;;;;;;14.35;72.51;102691.94;10330847;28;20523;-75
2023/04/02 15:48:56;;;;;;;7.75;5.00;;;;;;;15.11;65.90;102706.56;10341473;28;20040;-75
2023/04/02 15:54:18;;;;;;;7.28;5.05;;;;;;;12.18;72.04;102717.88;10332017;28;20040;-75
2023/04/02 15:59:39;;;;;;;7.43;4.80;;;;;;;13.28;74.26;102709.59;10346641;28;20051;-75
2023/04/02 16:05:15;;;;;;;5.45;4.70;;;;;;;13.80;64.78;102710.75;10323533;28;20037;-75
2023/04/02 16:10:23;;;;;;;5.95;4.78;;;;;;;12.79;65.29;102719.53;10319994;28;20076;-75
2023/04/02 16:15:59;;;;;;;4.78;4.10;;;;;;;11.87;76.62;102737.19;10342985;28;20051;-75
2023/04/02 16:21:00;;;;;;;5.18;4.68;;;;;;;12.25;74.41;102732.13;10327241;27;20435;-74
2023/04/02 16:26:03;;;;;;;5.20;4.43;;;;;;;13.00;70.27;102742.19;10348812;27;20741;-77
2023/04/02 16:31:25;;;;;;;4.30;3.90;;;;;;;12.04;71.28;102753.31;10345677;28;20114;-76
2023/04/02 16:36:37;;;;;;;5.95;4.43;;;;;;;12.42;66.68;102754.56;10336174;28;20048;-76
2023/04/02 16:42:09;;;;;;;4.80;4.30;;;;;;;11.90;68.58;102758.53;10345137;28;20523;-77
2023/04/02 16:47:29;;;;;;;7.13;4.30;;;;;;;11.32;74.19;102772.50;10299664;28;20067;-76
2023/04/02 16:52:51;;;;;;;5.85;4.72;;;;;;;10.86;76.00;102783.41;10338255;28;20063;-76
2023/04/02 16:58:18;;;;;;;5.07;4.57;;;;;;;10.30;76.64;102797.66;10345168;28;20047;-76
2023/04/02 17:03:45;;;;;;;5.57;5.07;;;;;;;9.90;77.88;102812.66;10341485;28;20419;-76
2023/04/02 17:09:00;;;;;;;5.28;4.63;;;;;;;9.82;77.85;102820.53;10357742;28;20043;-76
2023/04/02 17:14:05;;;;;;;6.20;4.65;;;;;;;9.71;79.07;102833.28;10337615;28;20746;-76
2023/04/02 17:19:10;;;;;;;5.65;4.93;;;;;;;8.68;92.35;102838.72;10340471;28;20036;-75
2023/04/02 17:24:13;;;;;;;5.10;4.60;;;;;;;8.28;98.08;102843.34;10342816;28;20045;-77
2023/04/02 17:29:16;;;;;;;8.20;5.53;;;;;;;7.86;100.00;102856.56;10327771;28;20127;-76
2023/04/02 17:34:15;;;;;;;8.35;5.50;;;;;;;7.31;100.00;102872.50;10350843;28;20094;-75
2023/04/02 17:39:42;;;;;;;5.82;4.95;;;;;;;7.70;100.00;102874.53;10342969;28;20047;-75
2023/04/02 17:44:57;;;;;;;5.35;4.72;;;;;;;7.07;100.00;102884.53;10347669;28;20052;-75
2023/04/02 17:50:33;;;;;;;7.28;4.68;;;;;;;7.02;100.00;102900.75;10347692;28;20051;-75
2023/04/02 17:55:36;;;;;;;6.80;5.20;;;;;;;6.75;100.00;102906.69;10329799;28;20881;-75
2023/04/02 18:01:03;;;;;;;7.15;5.40;;;;;;;6.42;100.00;102907.31;10343118;28;20052;-75
2023/04/02 18:06:12;;;;;;;5.43;4.90;;;;;;;6.21;100.00;102922.31;10342262;28;20098;-75
2023/04/02 18:11:40;;;;;;;6.22;5.10;;;;;;;6.00;100.00;102927.22;10354418;28;20044;-75
2023/04/02 18:17:05;;;;;;;8.45;5.18;;;;;;;6.16;100.00;102946.63;10333765;28;20133;-75
2023/04/02 18:22:11;;;;;;;8.35;5.10;;;;;;;5.91;100.00;102955.75;10329841;28;20049;-76
2023/04/02 18:27:46;;;;;;;5.88;4.55;;;;;;;5.64;100.00;102956.13;10345877;28;20044;-75
2023/04/02 18:32:55;;;;;;;7.75;5.10;;;;;;;5.57;100.00;102963.53;10334809;28;20048;-75
2023/04/02 18:38:17;;;;;;;8.25;5.15;;;;;;;5.68;100.00;102968.16;10345206;28;20075;-75
2023/04/02 18:43:27;;;;;;;8.60;4.97;;;;;;;5.31;100.00;102977.41;10328595;28;20051;-75
2023/04/02 18:48:46;;;;;;;6.00;5.40;;;;;;;5.05;100.00;102979.38;10333182;28;20049;-75
2023/04/02 18:53:43;;;;;;;12.63;5.50;;;;;;;5.17;100.00;102988.41;10332507;28;20127;-75
2023/04/02 18:58:55;;;;;;;5.85;5.25;;;;;;;4.84;100.00;103000.44;10347126;28;20682;-76
2023/04/02 19:04:01;;;;;;;8.40;5.50;;;;;;;4.89;100.00;102998.94;10342924;28;20827;-75
2023/04/02 19:09:01;;;;;;;6.65;5.53;;;;;;;4.73;100.00;103003.88;10340436;28;20063;-75
2023/04/02 19:14:00;;;;;;;6.68;4.90;;;;;;;4.35;100.00;103020.25;10336969;28;20055;-75
2023/04/02 19:19:22;;;;;;;6.05;4.88;;;;;;;4.63;100.00;103031.47;10335829;28;20530;-75
2023/04/02 19:24:38;;;;;;;5.40;4.78;;;;;;;4.58;100.00;103041.34;10337520;28;20131;-75
2023/04/02 19:30:03;;;;;;;7.68;5.22;;;;;;;4.40;100.00;103042.91;10326738;28;20128;-75
2023/04/02 19:35:23;;;;;;;7.15;4.95;;;;;;;4.40;100.00;103045.63;10338304;28;20048;-75
2023/04/02 19:40:41;;;;;;;9.13;5.20;;;;;;;4.29;100.00;103046.31;10335222;28;20082;-75
2023/04/02 19:45:40;;;;;;;6.80;5.20;;;;;;;4.10;100.00;103041.84;10331583;27;20044;-75
2023/04/02 19:50:37;;;;;;;5.90;5.30;;;;;;;4.20;100.00;103047.63;10329558;28;20044;-75
2023/04/02 19:55:34;;;;;;;10.77;5.47;;;;;;;3.92;100.00;103051.56;10340908;28;20104;-76
2023/04/02 20:00:32;;;;;;;6.85;5.38;;;;;;;3.43;100.00;103061.06;10337407;28;20040;-75
2023/04/02 20:05:28;;;;;;;8.70;5.70;;;;;;;3.77;100.00;103065.34;10330341;28;20041;-73
2023/04/02 20:10:24;;;;;;;6.70;5.68;;;;;;;3.76;100.00;103057.41;10350325;28;20052;-75
2023/04/02 20:15:21;;;;;;;6.47;5.57;;;;;;;3.70;100.00;103074.53;10330164;28;20241;-75
2023/04/02 20:20:18;;;;;;;7.60;5.25;;;;;;;3.68;100.00;103071.22;10335552;28;20082;-77
2023/04/02 20:25:14;;;;;;;6.35;5.18;;;;;;;3.61;100.00;103081.22;10347838;28;20122;-77
2023/04/02 20:30:11;;;;;;;9.48;5.38;;;;;;;3.43;100.00;103090.81;10355710;28;20040;-76
2023/04/02 20:35:08;;;;;;;8.35;5.40;;;;;;;3.31;100.00;103104.16;10343991;28;20470;-77
2023/04/02 20:40:05;;;;;;;7.85;5.95;;;;;;;3.37;100.00;103114.16;10347631;28;20058;-76
2023/04/02 20:45:04;;;;;;;7.78;5.53;;;;;;;3.27;100.00;103119.16;10346402;28;20079;-77
2023/04/02 20:50:01;;;;;;;8.90;5.57;;;;;;;3.20;100.00;103118.31;10345820;28;20047;-77
2023/04/02 20:54:57;;;;;;;7.93;5.00;;;;;;;3.22;100.00;103128.94;10345760;28;20039;-77
2023/04/02 20:59:53;;;;;;;9.98;5.45;;;;;;;3.07;100.00;103135.38;10332543;28;20495;-76
2023/04/02 21:04:50;;;;;;;12.80;5.57;;;;;;;3.05;100.00;103148.28;10350174;28;20044;-77
2023/04/02 21:09:46;;;;;;;8.38;5.38;;;;;;;2.99;100.00;103149.09;10350712;28;20040;-77
2023/04/02 21:14:43;;;;;;;6.65;5.30;;;;;;;2.80;100.00;103150.75;10348568;28;20503;-78
2023/04/02 21:19:39;;;;;;;8.38;5.35;;;;;;;2.86;100.00;103166.16;10354425;28;20120;-77
2023/04/02 21:24:36;;;;;;;7.35;5.55;;;;;;;2.73;100.00;103161.53;10348175;28;20070;-78
2023/04/02 21:29:32;;;;;;;5.75;4.75;;;;;;;2.63;100.00;103174.63;10346614;28;20101;-76
2023/04/02 21:34:29;;;;;;;8.05;4.72;;;;;;;2.49;100.00;103181.84;10357977;28;20044;-75
2023/04/02 21:39:26;;;;;;;11.40;6.28;;;;;;;2.21;100.00;103179.28;10349669;28;20055;-75
2023/04/02 21:44:23;;;;;;;9.35;4.70;;;;;;;2.31;100.00;103181.59;10343100;28;20123;-76
2023/04/02 21:49:21;;;;;;;6.72;5.07;;;;;;;2.14;100.00;103186.50;10348759;28;20097;-76
2023/04/02 21:54:18;;;;;;;8.27;5.05;;;;;;;2.02;100.00;103180.00;10343887;28;20052;-74
2023/04/02 21:59:16;;;;;;;6.82;4.75;;;;;;;1.91;100.00;103183.28;10343485;28;20040;-74
2023/04/02 22:04:21;;;;;;;5.15;4.53;;;;;;;1.84;100.00;103178.66;10357052;27;20553;-74
2023/04/02 22:09:21;;;;;;;9.23;4.90;;;;;;;1.68;100.00;103184.38;10342444;28;20129;-75
2023/04/02 22:14:19;;;;;;;9.18;4.57;;;;;;;1.59;100.00;103190.97;10350481;28;20074;-75
2023/04/02 22:19:17;;;;;;;9.85;5.40;;;;;;;1.50;100.00;103202.91;10334190;28;21390;-74
2023/04/02 22:24:17;;;;;;;10.15;5.05;;;;;;;1.40;100.00;103214.88;10328290;28;20052;-78
2023/04/02 22:29:14;;;;;;;8.35;5.63;;;;;;;1.51;100.00;103208.13;10346279;28;20044;-78
2023/04/02 22:34:11;;;;;;;13.93;5.75;;;;;;;1.54;100.00;103209.59;10351546;28;20047;-76
2023/04/02 22:39:10;;;;;;;9.55;5.60;;;;;;;1.51;100.00;103226.16;10347287;28;20044;-73
2023/04/02 22:44:13;;;;;;;11.38;5.28;;;;;;;1.52;100.00;103227.81;10329868;28;20118;-76
2023/04/02 22:49:10;;;;;;;6.28;4.90;;;;;;;1.37;100.00;103236.84;10340375;28;20503;-79
2023/04/02 22:54:06;;;;;;;7.68;4.97;;;;;;;1.35;100.00;103238.91;10346858;28;20040;-79
2023/04/02 22:59:03;;;;;;;7.68;5.43;;;;;;;1.23;100.00;103237.72;10343975;28;20043;-77
2023/04/02 23:04:00;;;;;;;12.98;5.07;;;;;;;1.18;100.00;103232.91;10348440;28;20051;-74
2023/04/02 23:08:58;;;;;;;11.13;4.95;;;;;;;1.03;100.00;103246.47;10344633;28;20053;-74
2023/04/02 23:13:56;;;;;;;9.20;5.00;;;;;;;0.90;100.00;103262.47;10333769;28;21955;-75
2023/04/02 23:18:54;;;;;;;11.15;5.00;;;;;;;0.89;100.00;103255.44;10330004;28;20045;-79